Suez Canal Bridge — HODM — position and weather

sailwx.info

Track history (hours):
 
Tides and Currents Weather Stations Pressure Air Temp Water Temp Dewpoint Dewpoint Depression Visibility Wind Speed Wind Dir Waves Ship Positions

Suez Canal Bridge

Last reported at 2015-Mar-05 22:11 UTC. Time now 2015-Mar-06 02:48 UTC.
Position N 40°58' W 031°11'.

Length 284.7 m; beam 40 m.

Type: Cargo ship. MMSI: 353704000.

Date/timePositionNaut miles runAvg speedWind from/ knotsBaromVisibWave heightAir tempDewpointWater temp
2015-Mar-05 22:11N 40°58' W 031°11'1219.2
2015-Mar-05 21:33N 40°56' W 030°55'  
2015-Mar-03 13:12N 36°09' W 007°50'11320.0
2015-Mar-03 07:33N 35°58' W 005°31'1817.9
2015-Mar-03 06:33N 36°02' W 005°09'22020.0
2015-Mar-02 19:33N 36°37' W 000°40'2119.9
2015-Mar-02 18:29N 36°41' W 000°14'1920.1
2015-Mar-02 17:33N 36°44' E 000°09'2420.2
2015-Mar-02 16:23N 36°47' E 000°38'1720.2
2015-Mar-02 15:33N 36°50' E 000°59'64120.0
2015-Mar-01 07:33N 36°31' E 014°18'  
Track history (hours):
 
Tides and Currents Weather Stations Pressure Air Temp Water Temp Dewpoint Dewpoint Depression Visibility Wind Speed Wind Dir Waves Ship Positions

Suez Canal Bridge

Last reported at 2015-Mar-05 22:11 UTC. Time now 2015-Mar-06 02:48 UTC.
Position N 40°58' W 031°11'.

Length 284.7 m; beam 40 m.

Type: Cargo ship. MMSI: 353704000.

Date/timePositionNaut miles runAvg speedWind from/ knotsBaromVisibWave heightAir tempDewpointWater temp
2015-Mar-05 22:11N 40°58' W 031°11'1219.2
2015-Mar-05 21:33N 40°56' W 030°55'  
2015-Mar-03 13:12N 36°09' W 007°50'11320.0
2015-Mar-03 07:33N 35°58' W 005°31'1817.9
2015-Mar-03 06:33N 36°02' W 005°09'22020.0
2015-Mar-02 19:33N 36°37' W 000°40'2119.9
2015-Mar-02 18:29N 36°41' W 000°14'1920.1
2015-Mar-02 17:33N 36°44' E 000°09'2420.2
2015-Mar-02 16:23N 36°47' E 000°38'1720.2
2015-Mar-02 15:33N 36°50' E 000°59'64120.0
2015-Mar-01 07:33N 36°31' E 014°18'  

Dump ship's entire track history